EDDE/ERF METAR and TAF weather

Enter ICAO airport designator
Station Type Date Time Source
EDDE METAR 2021/03/08 02:50 UTC NOAA

EDDE 080250Z 26007KT 9999 BKN020 00/M03 Q1019


Station Type Date Time Source
EDDE Decoded METAR 2021/03/08 02:50 UTC NOAA

Erfurt-Bindersleben, Germany (EDDE) 50-59N 010-58E 322M
Mar 07, 2021 - 09:50 PM EST / 2021.03.08 0250 UTC
Wind: from the W (260 degrees) at 8 MPH (7 KT):0
Visibility: greater than 7 mile(s):0
Sky conditions: mostly cloudy
Temperature: 32 F (0 C)
Windchill: 24 F (-4 C):1
Dew Point: 26 F (-3 C)
Relative Humidity: 80%
Pressure (altimeter): 30.09 in. Hg (1019 hPa)
ob: EDDE 080250Z 26007KT 9999 BKN020 00/M03 Q1019
cycle: 3

Station Type Date Time Source
EDDE TAF 2021/03/07 18:46 UTC NOAA

TAF EDDE 071700Z 0718/0818 33007KT 9999 BKN035
BECMG 0719/0721 27006KT
TEMPO 0805/0810 4000 -SN BKN013 PROB30
TEMPO 0805/0808 2000 SN BKN004
BECMG 0808/0810 01004KT

Example: see airport list